createdAt,value
2018-12-30T00:02:54.826Z,11.90
2018-12-30T00:08:10.590Z,13.20
2018-12-30T00:13:18.187Z,12.03
2018-12-30T00:15:41.448Z,11.90
2018-12-30T00:20:43.525Z,13.73
2018-12-30T00:23:16.058Z,11.97
2018-12-30T00:30:59.241Z,11.77
2018-12-30T00:36:02.922Z,13.57
2018-12-30T00:40:46.455Z,12.10
2018-12-30T00:43:10.028Z,11.30
2018-12-30T00:45:34.288Z,14.43
2018-12-30T00:47:55.426Z,13.23
2018-12-30T00:50:20.085Z,12.37
2018-12-30T00:52:46.797Z,12.87
2018-12-30T00:55:04.820Z,14.50
2018-12-30T00:57:28.072Z,14.47
2018-12-30T00:59:48.992Z,12.83
2018-12-30T01:02:07.951Z,16.77
2018-12-30T01:04:24.173Z,17.07
2018-12-30T01:06:57.280Z,13.57
2018-12-30T01:16:37.618Z,14.33
2018-12-30T01:19:24.844Z,14.83
2018-12-30T01:25:08.393Z,15.90
2018-12-30T01:30:15.318Z,15.40
2018-12-30T01:32:45.005Z,15.27
2018-12-30T01:35:03.252Z,14.67
2018-12-30T01:37:40.361Z,14.30
2018-12-30T01:43:02.636Z,13.47
2018-12-30T01:45:22.592Z,11.70
2018-12-30T01:47:45.928Z,13.53
2018-12-30T01:50:05.563Z,19.00
2018-12-30T01:55:13.175Z,11.77
2018-12-30T01:57:36.430Z,15.63
2018-12-30T01:59:57.607Z,11.30
2018-12-30T02:02:17.858Z,12.80
2018-12-30T02:04:45.780Z,13.57
2018-12-30T02:06:56.808Z,14.93
2018-12-30T02:09:15.393Z,14.67
2018-12-30T02:11:57.325Z,12.50
2018-12-30T02:14:01.079Z,13.53
2018-12-30T02:16:17.673Z,13.63
2018-12-30T02:18:40.554Z,16.03
2018-12-30T02:21:00.127Z,13.93
2018-12-30T02:23:20.184Z,19.00
2018-12-30T02:25:43.567Z,16.27
2018-12-30T02:28:13.665Z,18.40
2018-12-30T02:30:32.707Z,13.97
2018-12-30T02:32:55.153Z,11.17
2018-12-30T02:35:16.983Z,16.30
2018-12-30T02:37:39.152Z,13.87
2018-12-30T02:39:55.768Z,14.40
2018-12-30T02:47:37.409Z,11.77
2018-12-30T02:49:57.468Z,12.33
2018-12-30T02:52:18.410Z,11.97
2018-12-30T02:54:36.085Z,15.70
2018-12-30T02:59:36.185Z,13.83
2018-12-30T03:01:59.903Z,12.50
2018-12-30T03:04:19.731Z,11.67
2018-12-30T03:07:12.304Z,14.77
2018-12-30T03:11:42.554Z,11.30
2018-12-30T03:14:01.345Z,11.10
2018-12-30T03:16:21.004Z,12.60
2018-12-30T03:21:32.892Z,15.07
2018-12-30T03:23:57.656Z,13.53
2018-12-30T03:26:18.931Z,13.53
2018-12-30T03:29:20.096Z,14.87
2018-12-30T03:31:01.248Z,12.07
2018-12-30T03:33:29.607Z,15.10
2018-12-30T03:35:53.327Z,11.00
2018-12-30T03:38:12.584Z,14.70
2018-12-30T03:40:40.277Z,14.57
2018-12-30T03:43:24.402Z,9.80
2018-12-30T03:46:15.733Z,14.27
2018-12-30T03:48:08.552Z,13.33
2018-12-30T03:50:27.446Z,11.67
2018-12-30T03:52:50.584Z,14.80
2018-12-30T03:55:11.378Z,18.00
2018-12-30T03:57:46.156Z,13.83
2018-12-30T04:00:03.838Z,12.47
2018-12-30T04:04:44.115Z,14.77
2018-12-30T04:07:06.104Z,14.33
2018-12-30T04:09:27.383Z,12.27
2018-12-30T04:11:52.422Z,10.83
2018-12-30T04:14:16.599Z,15.50
2018-12-30T04:22:01.135Z,14.83
2018-12-30T04:23:35.331Z,11.90
2018-12-30T04:28:38.305Z,13.40
2018-12-30T04:30:58.837Z,14.03
2018-12-30T04:33:18.475Z,15.50
2018-12-30T04:35:39.657Z,14.53
2018-12-30T04:38:00.676Z,18.00
2018-12-30T04:40:20.316Z,16.97
2018-12-30T04:42:42.237Z,18.67
2018-12-30T04:44:59.510Z,14.47
2018-12-30T04:47:42.926Z,13.27
2018-12-30T04:54:52.598Z,11.57
2018-12-30T04:57:08.796Z,13.80
2018-12-30T04:59:55.742Z,13.30
2018-12-30T05:04:49.433Z,12.23
2018-12-30T05:09:53.043Z,9.33
2018-12-30T05:12:13.764Z,12.33
2018-12-30T05:14:33.584Z,17.73
2018-12-30T05:16:57.411Z,12.77
2018-12-30T05:19:17.937Z,14.13
2018-12-30T05:21:45.639Z,14.97
2018-12-30T05:24:04.571Z,12.70
2018-12-30T05:28:50.977Z,13.90
2018-12-30T05:31:11.569Z,13.97
2018-12-30T05:33:33.260Z,18.23
2018-12-30T05:35:53.103Z,12.30
2018-12-30T05:38:14.657Z,14.97
2018-12-30T05:40:33.107Z,15.53
2018-12-30T05:42:53.425Z,17.13
2018-12-30T05:45:15.804Z,11.57
2018-12-30T05:47:38.734Z,10.57
2018-12-30T05:50:04.161Z,17.20
2018-12-30T05:52:22.922Z,20.57
2018-12-30T05:57:21.236Z,11.47
2018-12-30T06:00:16.783Z,13.00
2018-12-30T06:02:10.610Z,16.00
2018-12-30T06:04:28.650Z,12.20
2018-12-30T06:06:48.395Z,19.80
2018-12-30T06:09:08.313Z,12.40
2018-12-30T06:13:50.404Z,18.00
2018-12-30T06:16:12.722Z,17.57
2018-12-30T06:18:33.272Z,11.43
2018-12-30T06:28:46.764Z,13.27
2018-12-30T06:31:04.218Z,11.90
2018-12-30T06:33:22.276Z,13.63
2018-12-30T06:36:27.627Z,14.10
2018-12-30T06:38:05.526Z,15.37
2018-12-30T06:40:26.249Z,14.70
2018-12-30T06:42:44.722Z,12.97
2018-12-30T06:45:02.133Z,18.90
2018-12-30T06:47:49.248Z,15.07
2018-12-30T06:49:54.936Z,12.90
2018-12-30T06:52:21.344Z,13.37
2018-12-30T06:54:37.368Z,15.73
2018-12-30T06:56:55.738Z,15.77
2018-12-30T06:59:13.879Z,17.23
2018-12-30T07:01:43.240Z,16.77
2018-12-30T07:04:29.454Z,21.27
2018-12-30T07:09:48.333Z,13.70
2018-12-30T07:11:45.324Z,15.40
2018-12-30T07:16:36.964Z,19.20
2018-12-30T07:18:57.425Z,15.33
2018-12-30T07:21:21.484Z,14.47
2018-12-30T07:23:42.778Z,15.77
2018-12-30T07:26:23.868Z,15.20
2018-12-30T07:29:06.697Z,16.43
2018-12-30T07:31:23.984Z,14.47
2018-12-30T07:36:26.424Z,17.97
2018-12-30T07:39:23.755Z,15.40
2018-12-30T07:43:44.668Z,12.30
2018-12-30T07:46:52.554Z,12.03
2018-12-30T07:48:40.915Z,15.83
2018-12-30T07:50:54.435Z,14.23
2018-12-30T07:53:13.841Z,15.07
2018-12-30T08:00:46.845Z,14.63
2018-12-30T08:02:47.747Z,10.00
2018-12-30T08:05:06.325Z,16.07
2018-12-30T08:07:23.262Z,17.07
2018-12-30T08:09:41.402Z,13.63
2018-12-30T08:12:06.454Z,13.50
2018-12-30T08:16:59.194Z,13.57
2018-12-30T08:19:20.020Z,13.93
2018-12-30T08:21:43.351Z,10.00
2018-12-30T08:32:39.215Z,10.20
2018-12-30T08:34:33.304Z,12.73
2018-12-30T08:36:53.819Z,15.13
2018-12-30T08:47:46.271Z,15.87
2018-12-30T08:49:33.717Z,12.67
2018-12-30T08:51:52.122Z,13.00
2018-12-30T08:59:57.850Z,16.03
2018-12-30T09:04:58.808Z,13.00
2018-12-30T09:07:19.192Z,14.60
2018-12-30T09:09:39.425Z,22.20
2018-12-30T09:14:40.188Z,16.10
2018-12-30T09:16:57.916Z,11.30
2018-12-30T09:22:32.910Z,13.93
2018-12-30T09:32:56.279Z,17.60
2018-12-30T09:37:57.880Z,17.90
2018-12-30T09:46:02.362Z,20.37
2018-12-30T09:50:40.598Z,15.77
2018-12-30T09:53:05.691Z,16.13
2018-12-30T09:55:57.887Z,20.07
2018-12-30T09:58:02.870Z,19.93
2018-12-30T10:00:23.297Z,16.93
2018-12-30T10:03:47.745Z,21.10
2018-12-30T10:08:15.283Z,17.47
2018-12-30T10:16:16.002Z,13.97
2018-12-30T10:19:09.610Z,18.67
2018-12-30T10:21:19.703Z,16.63
2018-12-30T10:26:48.482Z,17.63
2018-12-30T10:29:29.822Z,17.97
2018-12-30T10:31:49.492Z,17.13
2018-12-30T10:33:58.283Z,16.00
2018-12-30T10:36:17.763Z,16.27
2018-12-30T10:39:20.227Z,17.03
2018-12-30T10:41:06.719Z,16.47
2018-12-30T10:46:05.993Z,22.87
2018-12-30T10:48:41.313Z,18.03
2018-12-30T10:56:33.870Z,20.17
2018-12-30T10:58:47.678Z,19.03
2018-12-30T11:01:40.558Z,20.00
2018-12-30T11:06:15.637Z,17.70
2018-12-30T11:08:53.183Z,21.20
2018-12-30T11:11:19.113Z,18.33
2018-12-30T11:13:33.652Z,23.23
2018-12-30T11:15:55.154Z,17.70
2018-12-30T11:18:13.098Z,18.27
2018-12-30T11:25:59.243Z,20.27
2018-12-30T11:34:28.681Z,16.67
2018-12-30T11:36:37.816Z,18.50
2018-12-30T11:39:26.376Z,22.63
2018-12-30T11:41:51.075Z,16.13
2018-12-30T11:44:13.092Z,17.13
2018-12-30T11:46:32.256Z,18.57
2018-12-30T11:52:12.408Z,17.07
2018-12-30T11:56:59.344Z,14.07
2018-12-30T11:59:22.205Z,16.60
2018-12-30T12:01:39.319Z,20.63
2018-12-30T12:07:20.899Z,16.23
2018-12-30T12:14:52.666Z,16.13
2018-12-30T12:17:16.126Z,20.40
2018-12-30T12:20:11.279Z,20.80
2018-12-30T12:24:49.434Z,19.20
2018-12-30T12:30:49.827Z,15.70
2018-12-30T12:33:13.224Z,14.83
2018-12-30T12:38:51.429Z,14.20
2018-12-30T12:40:51.916Z,14.77
2018-12-30T12:43:17.149Z,12.77
2018-12-30T12:48:14.311Z,16.93
2018-12-30T12:50:38.832Z,15.77
2018-12-30T12:52:57.996Z,15.30
2018-12-30T12:55:17.991Z,11.27
2018-12-30T12:57:37.943Z,14.20
2018-12-30T13:00:04.755Z,11.30
2018-12-30T13:08:25.447Z,13.33
2018-12-30T13:10:54.272Z,13.80
2018-12-30T13:16:47.012Z,10.60
2018-12-30T13:24:10.060Z,10.93
2018-12-30T13:31:53.239Z,18.17
2018-12-30T13:37:29.137Z,9.17
2018-12-30T13:42:26.866Z,8.13
2018-12-30T13:45:16.755Z,15.47
2018-12-30T13:50:11.421Z,6.40
2018-12-30T13:52:56.869Z,10.03
2018-12-30T13:58:00.753Z,16.10
2018-12-30T14:08:37.991Z,10.30
2018-12-30T14:11:18.517Z,11.47
2018-12-30T14:13:57.573Z,12.83
2018-12-30T14:16:32.955Z,10.07
2018-12-30T14:19:03.881Z,9.00
2018-12-30T14:21:07.052Z,9.97
2018-12-30T14:26:12.448Z,13.73
2018-12-30T14:29:26.885Z,10.00
2018-12-30T14:34:22.541Z,11.10
2018-12-30T14:37:12.196Z,11.23
2018-12-30T14:39:28.002Z,11.60
2018-12-30T14:42:11.885Z,11.83
2018-12-30T14:44:34.757Z,21.17
2018-12-30T14:46:54.553Z,11.10
2018-12-30T14:49:19.618Z,15.33
2018-12-30T14:51:56.732Z,14.20
2018-12-30T14:57:21.605Z,15.40
2018-12-30T15:02:14.728Z,10.13
2018-12-30T15:07:29.872Z,10.03
2018-12-30T15:12:13.366Z,12.30
2018-12-30T15:14:35.873Z,8.90
2018-12-30T15:17:00.020Z,9.23
2018-12-30T15:19:24.744Z,8.33
2018-12-30T15:25:00.332Z,10.33
2018-12-30T15:33:04.211Z,12.23
2018-12-30T15:35:22.850Z,15.33
2018-12-30T15:37:58.641Z,20.13
2018-12-30T15:40:20.016Z,15.07
2018-12-30T15:42:49.640Z,13.40
2018-12-30T15:48:42.658Z,22.10
2018-12-30T15:51:24.029Z,12.53
2018-12-30T15:53:50.026Z,17.13
2018-12-30T16:02:06.138Z,16.20
2018-12-30T16:04:22.415Z,16.60
2018-12-30T16:06:41.538Z,13.57
2018-12-30T16:09:00.363Z,15.93
2018-12-30T16:11:19.148Z,16.40
2018-12-30T16:13:56.121Z,13.10
2018-12-30T16:18:37.752Z,12.93
2018-12-30T16:20:48.010Z,17.70
2018-12-30T16:23:11.962Z,12.10
2018-12-30T16:28:30.094Z,13.27
2018-12-30T16:30:48.609Z,13.97
2018-12-30T16:33:05.614Z,16.03
2018-12-30T16:35:10.871Z,15.93
2018-12-30T16:37:34.845Z,19.63
2018-12-30T16:42:41.595Z,15.27
2018-12-30T16:44:58.276Z,14.73
2018-12-30T16:47:17.135Z,15.20
2018-12-30T16:49:49.039Z,15.53
2018-12-30T16:52:23.894Z,8.30
2018-12-30T16:55:01.593Z,14.70
2018-12-30T16:57:12.781Z,14.97
2018-12-30T16:59:25.889Z,13.33
2018-12-30T17:01:42.530Z,11.70
2018-12-30T17:04:00.445Z,12.00
2018-12-30T17:06:16.733Z,12.90
2018-12-30T17:08:33.247Z,11.07
2018-12-30T17:10:49.764Z,12.53
2018-12-30T17:12:57.296Z,15.60
2018-12-30T17:15:30.155Z,11.73
2018-12-30T17:17:56.653Z,14.53
2018-12-30T17:20:19.375Z,16.03
2018-12-30T17:22:36.763Z,13.77
2018-12-30T17:24:43.638Z,12.67
2018-12-30T17:29:55.375Z,14.30
2018-12-30T17:37:43.779Z,11.43
2018-12-30T17:42:50.720Z,14.50
2018-12-30T17:45:40.351Z,19.93
2018-12-30T17:48:00.220Z,14.37
2018-12-30T17:50:17.056Z,14.97
2018-12-30T17:52:33.462Z,15.33
2018-12-30T17:54:49.747Z,17.83
2018-12-30T17:57:10.476Z,15.33
2018-12-30T17:59:28.824Z,16.33
2018-12-30T18:01:46.874Z,14.60
2018-12-30T18:04:08.400Z,16.43
2018-12-30T18:06:24.617Z,13.90
2018-12-30T18:08:45.445Z,19.80
2018-12-30T18:11:04.552Z,15.90
2018-12-30T18:13:21.517Z,13.73
2018-12-30T18:15:37.752Z,12.20
2018-12-30T18:17:54.022Z,18.87
2018-12-30T18:20:10.711Z,15.10
2018-12-30T18:22:27.080Z,13.77
2018-12-30T18:24:43.686Z,14.53
2018-12-30T18:26:59.937Z,18.30
2018-12-30T18:29:16.359Z,11.73
2018-12-30T18:31:33.231Z,14.70
2018-12-30T18:33:49.807Z,20.57
2018-12-30T18:36:09.344Z,13.23
2018-12-30T18:38:25.611Z,14.13
2018-12-30T18:40:42.314Z,17.30
2018-12-30T18:43:00.373Z,17.57
2018-12-30T18:45:16.576Z,14.00
2018-12-30T18:50:00.241Z,13.47
2018-12-30T18:55:34.918Z,21.00
2018-12-30T18:57:43.043Z,18.20
2018-12-30T19:00:03.807Z,14.40
2018-12-30T19:02:48.177Z,18.50
2018-12-30T19:04:59.492Z,15.83
2018-12-30T19:07:36.851Z,18.80
2018-12-30T19:09:58.247Z,23.63
2018-12-30T19:12:17.027Z,18.30
2018-12-30T19:14:33.786Z,15.30
2018-12-30T19:16:39.138Z,12.80
2018-12-30T19:19:03.232Z,13.07
2018-12-30T19:21:45.988Z,16.57
2018-12-30T19:24:02.467Z,16.03
2018-12-30T19:26:24.724Z,16.03
2018-12-30T19:28:44.484Z,9.67
2018-12-30T19:31:01.345Z,15.60
2018-12-30T19:33:17.972Z,14.93
2018-12-30T19:35:23.016Z,16.93
2018-12-30T19:37:47.449Z,14.63
2018-12-30T19:40:12.308Z,15.33
2018-12-30T19:42:36.269Z,16.57
2018-12-30T19:44:56.476Z,12.70
2018-12-30T19:47:13.455Z,17.37
2018-12-30T19:49:29.886Z,16.80
2018-12-30T19:51:43.108Z,21.93
2018-12-30T19:56:36.807Z,19.10
2018-12-30T19:58:52.984Z,24.53
2018-12-30T20:01:09.687Z,21.53
2018-12-30T20:03:26.392Z,14.87
2018-12-30T20:05:42.896Z,21.63
2018-12-30T20:07:59.629Z,17.80
2018-12-30T20:12:58.455Z,17.90
2018-12-30T20:15:19.239Z,15.43
2018-12-30T20:17:57.989Z,18.67
2018-12-30T20:20:07.943Z,20.67
2018-12-30T20:25:13.135Z,16.53
2018-12-30T20:27:29.498Z,20.17
2018-12-30T20:29:46.253Z,15.23
2018-12-30T20:32:03.519Z,17.17
2018-12-30T20:34:28.893Z,17.33
2018-12-30T20:36:55.320Z,18.27
2018-12-30T20:39:11.669Z,23.03
2018-12-30T20:41:33.682Z,20.10
2018-12-30T20:43:49.958Z,17.70
2018-12-30T20:46:06.706Z,25.27
2018-12-30T20:48:26.368Z,21.63
2018-12-30T20:50:44.277Z,21.53
2018-12-30T20:52:52.106Z,24.33
2018-12-30T20:55:16.072Z,25.43
2018-12-30T20:57:45.010Z,24.43
2018-12-30T21:00:15.630Z,22.30
2018-12-30T21:04:51.774Z,23.87
2018-12-30T21:07:08.019Z,23.53
2018-12-30T21:09:36.226Z,23.83
2018-12-30T21:11:41.269Z,24.67
2018-12-30T21:14:05.193Z,22.70
2018-12-30T21:16:29.160Z,26.67
2018-12-30T21:18:47.787Z,26.33
2018-12-30T21:20:56.462Z,24.87
2018-12-30T21:23:20.441Z,26.93
2018-12-30T21:25:43.085Z,23.07
2018-12-30T21:27:59.864Z,26.40
2018-12-30T21:30:16.192Z,23.90
2018-12-30T21:32:33.684Z,27.90
2018-12-30T21:34:52.995Z,21.27
2018-12-30T21:37:11.874Z,29.17
2018-12-30T21:39:28.424Z,28.63
2018-12-30T21:41:46.422Z,33.63
2018-12-30T21:44:02.763Z,24.43
2018-12-30T21:46:23.347Z,27.40
2018-12-30T21:51:45.871Z,24.57
2018-12-30T21:54:02.398Z,30.50
2018-12-30T21:56:45.406Z,31.57
2018-12-30T21:59:05.101Z,28.20
2018-12-30T22:01:22.167Z,27.70
2018-12-30T22:03:45.309Z,25.93
2018-12-30T22:05:59.441Z,25.90
2018-12-30T22:08:21.357Z,26.17
2018-12-30T22:10:41.152Z,24.60
2018-12-30T22:12:59.188Z,25.00
2018-12-30T22:17:43.465Z,26.83
2018-12-30T22:19:58.946Z,26.30
2018-12-30T22:22:15.890Z,25.07
2018-12-30T22:24:35.008Z,25.23
2018-12-30T22:26:55.369Z,22.77
2018-12-30T22:34:33.862Z,25.60
2018-12-30T22:36:51.094Z,27.20
2018-12-30T22:39:07.320Z,26.47
2018-12-30T22:41:23.877Z,27.27
2018-12-30T22:43:42.778Z,29.23
2018-12-30T22:46:00.939Z,23.07
2018-12-30T22:48:17.991Z,29.07
2018-12-30T22:50:34.498Z,32.80
2018-12-30T22:52:51.422Z,30.97
2018-12-30T22:55:10.582Z,35.73
2018-12-30T22:57:27.097Z,33.20
2018-12-30T22:59:47.950Z,35.67
2018-12-30T23:02:05.043Z,35.47
2018-12-30T23:04:23.235Z,43.53
2018-12-30T23:06:31.224Z,32.57
2018-12-30T23:08:36.686Z,31.33
2018-12-30T23:11:05.982Z,31.83
2018-12-30T23:13:22.855Z,33.27
2018-12-30T23:15:39.581Z,36.00
2018-12-30T23:18:18.961Z,29.87
2018-12-30T23:20:24.947Z,36.77
2018-12-30T23:22:30.622Z,32.53
2018-12-30T23:24:57.410Z,29.60
2018-12-30T23:27:42.070Z,27.27
2018-12-30T23:29:58.888Z,32.00
2018-12-30T23:32:15.715Z,30.33
2018-12-30T23:34:37.835Z,32.20
2018-12-30T23:36:42.918Z,34.23
2018-12-30T23:39:07.986Z,31.73
2018-12-30T23:41:13.062Z,34.20
2018-12-30T23:43:37.172Z,29.97
2018-12-30T23:45:53.639Z,33.67
2018-12-30T23:48:10.422Z,29.43
2018-12-30T23:50:33.667Z,33.53
2018-12-30T23:52:50.169Z,28.93
2018-12-30T23:55:06.628Z,34.47
2018-12-30T23:57:12.785Z,31.17
2018-12-30T23:59:55.643Z,30.20
